Time;durP1;ratioP1;P1;durP2;ratioP2;P2;SDS_P1;SDS_P2;PMS_P1;PMS_P2;Temp;Humidity;BMP_temperature;BMP_pressure;BME280_temperature;BME280_humidity;BME280_pressure;Samples;Min_cycle;Max_cycle;Signal;HPM_P1;HPM_P2
2022/05/24 00:00:22;;;;;;;9.25;4.65;;;21.00;99.90;;;;;;5039635;28;20560;-80
2022/05/24 00:02:48;;;;;;;6.68;4.38;;;21.10;99.90;;;;;;5037131;28;20361;-81
2022/05/24 00:05:14;;;;;;;7.35;4.75;;;21.20;99.90;;;;;;5045246;28;20087;-80
2022/05/24 00:07:41;;;;;;;10.20;5.13;;;21.20;99.90;;;;;;5041491;28;20873;-81
2022/05/24 00:10:09;;;;;;;8.48;4.50;;;21.20;99.90;;;;;;5040208;28;20078;-81
2022/05/24 00:12:37;;;;;;;9.13;5.20;;;21.30;99.90;;;;;;5042640;28;20372;-80
2022/05/24 00:15:27;;;;;;;9.18;4.93;;;21.30;99.90;;;;;;5043001;28;20391;-80
2022/05/24 00:18:20;;;;;;;8.48;4.50;;;21.30;99.90;;;;;;5036710;28;20026;-81
2022/05/24 00:20:49;;;;;;;7.75;5.13;;;21.30;99.90;;;;;;5018743;28;20041;-79
2022/05/24 00:23:16;;;;;;;9.02;4.68;;;21.40;99.90;;;;;;5044411;28;20436;-81
2022/05/24 00:25:45;;;;;;;9.60;4.80;;;21.30;99.90;;;;;;5016892;28;20132;-80
2022/05/24 00:28:15;;;;;;;8.70;5.40;;;21.20;99.90;;;;;;5038596;28;20108;-80
2022/05/24 00:30:42;;;;;;;12.70;4.80;;;21.20;99.90;;;;;;5022561;28;20600;-80
2022/05/24 00:33:09;;;;;;;8.73;5.03;;;21.20;99.90;;;;;;5040673;28;20056;-80
2022/05/24 00:35:35;;;;;;;11.20;5.53;;;21.10;99.90;;;;;;5030422;28;20064;-80
2022/05/24 00:38:01;;;;;;;10.80;4.97;;;21.00;99.90;;;;;;5041648;28;20534;-81
2022/05/24 00:40:45;;;;;;;9.73;5.15;;;20.90;99.90;;;;;;5038834;28;20025;-81
2022/05/24 00:43:27;;;;;;;12.85;5.20;;;20.90;99.90;;;;;;5043216;28;20113;-81
2022/05/24 00:45:56;;;;;;;8.43;5.13;;;20.80;99.90;;;;;;5018415;28;20107;-81
2022/05/24 00:48:31;;;;;;;17.35;5.72;;;20.90;99.90;;;;;;5040026;28;20037;-81
2022/05/24 00:50:58;;;;;;;12.18;5.50;;;21.00;99.90;;;;;;5031015;28;20530;-81
2022/05/24 00:53:53;;;;;;;9.60;5.47;;;21.00;99.90;;;;;;5043487;28;20014;-81
2022/05/24 00:56:30;;;;;;;14.15;5.95;;;21.00;99.90;;;;;;5017650;28;20033;-81
2022/05/24 00:59:03;;;;;;;8.98;5.38;;;21.00;99.90;;;;;;5040020;28;20096;-79
2022/05/24 01:01:56;;;;;;;11.48;5.22;;;21.00;99.90;;;;;;5043018;28;20024;-80
2022/05/24 01:04:22;;;;;;;10.25;5.97;;;21.00;99.90;;;;;;5032386;28;20118;-80
2022/05/24 01:06:49;;;;;;;7.72;5.65;;;21.00;99.90;;;;;;5042273;28;20108;-82
2022/05/24 01:09:34;;;;;;;11.57;6.35;;;21.00;99.90;;;;;;5035566;28;20025;-79
2022/05/24 01:12:06;;;;;;;12.30;5.97;;;21.10;99.90;;;;;;5038802;28;20380;-80
2022/05/24 01:14:32;;;;;;;10.55;6.43;;;21.10;99.90;;;;;;5038683;28;20029;-80
2022/05/24 01:16:59;;;;;;;13.80;6.95;;;21.10;99.90;;;;;;5042614;28;20392;-80
2022/05/24 01:19:43;;;;;;;10.23;6.13;;;21.10;99.90;;;;;;5039759;28;20025;-80
2022/05/24 01:22:33;;;;;;;10.73;6.35;;;21.10;99.90;;;;;;5023204;28;20034;-79
2022/05/24 01:25:02;;;;;;;9.57;6.43;;;21.00;99.90;;;;;;5013465;28;20042;-80
2022/05/24 01:27:29;;;;;;;10.15;6.20;;;21.00;99.90;;;;;;5023665;28;20052;-80
2022/05/24 01:29:54;;;;;;;11.48;5.88;;;21.00;99.90;;;;;;5035942;28;20048;-80
2022/05/24 01:37:55;;;;;;;10.07;6.30;;;21.10;99.90;;;;;;5031878;28;20028;-81
2022/05/24 01:40:21;;;;;;;8.48;6.15;;;21.20;99.90;;;;;;5038251;28;20017;-79
2022/05/24 01:42:47;;;;;;;7.55;6.30;;;21.20;99.90;;;;;;5035436;28;20028;-82
2022/05/24 01:45:29;;;;;;;10.90;5.93;;;21.10;99.90;;;;;;5021314;28;20029;-81
2022/05/24 01:48:01;;;;;;;16.42;6.22;;;21.20;99.90;;;;;;5040261;28;20045;-81
2022/05/24 01:50:28;;;;;;;13.00;6.68;;;21.20;99.90;;;;;;5043077;28;20447;-81
2022/05/24 01:52:57;;;;;;;10.95;6.05;;;21.10;99.90;;;;;;5036374;28;20407;-80
2022/05/24 01:55:29;;;;;;;9.70;6.07;;;21.10;99.90;;;;;;5023976;28;20384;-80
2022/05/24 01:58:00;;;;;;;8.25;6.55;;;21.00;99.90;;;;;;5040502;28;20479;-80
2022/05/24 02:00:26;;;;;;;11.95;6.82;;;21.00;99.90;;;;;;5027487;28;20396;-81
2022/05/24 02:02:51;;;;;;;8.73;6.25;;;20.90;99.90;;;;;;5040931;28;20032;-80
2022/05/24 02:05:32;;;;;;;11.40;6.28;;;20.90;99.90;;;;;;5024822;28;20086;-80
2022/05/24 02:08:03;;;;;;;13.00;6.65;;;20.80;99.90;;;;;;5037071;28;20025;-80
2022/05/24 02:10:35;;;;;;;15.57;6.30;;;20.80;99.90;;;;;;5043065;28;20021;-80
2022/05/24 02:13:02;;;;;;;;;;;20.80;99.90;;;;;;5041383;28;20082;-80
2022/05/24 02:15:32;;;;;;;8.73;6.30;;;20.80;99.90;;;;;;5016919;28;19913;-80
2022/05/24 02:18:03;;;;;;;10.85;6.40;;;20.80;99.90;;;;;;5040544;28;20055;-80
2022/05/24 02:20:33;;;;;;;13.03;6.73;;;20.80;99.90;;;;;;5037917;28;20017;-80
2022/05/24 02:22:58;;;;;;;9.18;7.18;;;20.70;99.90;;;;;;5039844;28;20059;-80
2022/05/24 02:25:35;;;;;;;15.93;6.97;;;20.70;99.90;;;;;;5035486;28;20055;-80
2022/05/24 02:28:02;;;;;;;8.95;6.43;;;20.80;99.90;;;;;;5040526;28;20480;-80
2022/05/24 02:30:29;;;;;;;10.38;6.65;;;20.80;99.90;;;;;;5045826;28;20029;-80
2022/05/24 02:32:55;;;;;;;12.02;6.75;;;20.80;99.90;;;;;;5039399;28;20013;-80
2022/05/24 02:35:22;;;;;;;10.10;6.28;;;20.90;99.90;;;;;;5017826;28;20021;-79
2022/05/24 02:37:47;;;;;;;10.32;6.40;;;20.90;99.90;;;;;;5037138;28;20028;-79
2022/05/24 02:42:58;;;;;;;12.95;7.25;;;20.90;99.90;;;;;;5039536;28;20595;-82
2022/05/24 02:45:24;;;;;;;12.13;6.95;;;20.90;99.90;;;;;;5019195;28;20508;-81
2022/05/24 02:47:51;;;;;;;15.70;7.18;;;21.00;99.90;;;;;;5039470;28;20017;-80
2022/05/24 02:50:20;;;;;;;11.38;6.63;;;21.00;99.90;;;;;;5043578;28;20048;-80
2022/05/24 02:52:46;;;;;;;9.57;7.07;;;21.00;99.90;;;;;;5021950;28;20025;-81
2022/05/24 02:55:13;;;;;;;8.75;6.70;;;21.00;99.90;;;;;;5042239;28;20025;-81
2022/05/24 02:57:39;;;;;;;10.57;7.07;;;21.00;99.90;;;;;;5039704;28;20078;-80
2022/05/24 03:00:17;;;;;;;13.38;6.80;;;21.00;99.90;;;;;;5034944;28;20099;-81
2022/05/24 03:02:43;;;;;;;11.88;6.95;;;20.90;99.90;;;;;;5038530;28;20036;-80
2022/05/24 03:05:12;;;;;;;14.35;7.20;;;20.80;99.90;;;;;;5047029;28;20388;-81
2022/05/24 03:10:24;;;;;;;11.52;7.10;;;20.80;99.90;;;;;;5036403;28;20075;-80
2022/05/24 03:15:36;;;;;;;12.68;7.05;;;20.80;99.90;;;;;;5042665;28;20032;-80
2022/05/24 03:18:02;;;;;;;11.02;6.65;;;20.80;99.90;;;;;;5025776;28;20021;-80
2022/05/24 03:20:27;;;;;;;11.63;6.80;;;20.80;99.90;;;;;;5047284;28;20018;-81
2022/05/24 03:22:53;;;;;;;11.27;6.72;;;20.90;99.90;;;;;;5025801;28;20036;-80
2022/05/24 03:25:19;;;;;;;11.45;6.88;;;20.90;99.90;;;;;;5021913;28;20031;-80
2022/05/24 03:27:48;;;;;;;12.30;6.43;;;20.90;99.90;;;;;;5044509;28;20047;-81
2022/05/24 03:30:18;;;;;;;9.50;6.57;;;20.90;99.90;;;;;;5020674;28;20495;-80
2022/05/24 03:32:44;;;;;;;11.80;6.93;;;20.90;99.90;;;;;;5042482;28;20059;-81
2022/05/24 03:35:13;;;;;;;11.88;7.50;;;20.90;99.90;;;;;;5047148;28;20068;-80
2022/05/24 03:37:40;;;;;;;11.15;7.30;;;20.80;99.90;;;;;;5044985;28;20140;-80
2022/05/24 03:40:09;;;;;;;10.90;6.80;;;20.80;99.90;;;;;;5038457;28;20031;-80
2022/05/24 03:42:36;;;;;;;9.90;7.10;;;20.90;99.90;;;;;;5043252;28;20029;-81
2022/05/24 03:45:03;;;;;;;14.93;6.38;;;20.80;99.90;;;;;;5030775;28;20396;-81
2022/05/24 03:47:28;;;;;;;13.55;6.72;;;20.90;99.90;;;;;;5042158;28;20033;-81
2022/05/24 03:49:57;;;;;;;14.43;6.78;;;20.90;99.90;;;;;;5025897;28;20054;-80
2022/05/24 03:52:23;;;;;;;19.02;6.72;;;20.90;99.90;;;;;;5021943;28;20032;-81
2022/05/24 03:54:50;;;;;;;13.05;6.70;;;21.00;99.90;;;;;;5020247;28;20132;-81
2022/05/24 04:00:00;;;;;;;13.45;6.38;;;21.00;99.90;;;;;;5024758;28;20044;-80
2022/05/24 04:02:29;;;;;;;10.63;6.30;;;21.10;99.90;;;;;;5023044;28;20021;-80
2022/05/24 04:04:54;;;;;;;11.85;6.60;;;21.10;99.90;;;;;;5022602;28;20472;-80
2022/05/24 04:07:20;;;;;;;11.63;6.18;;;21.10;99.90;;;;;;5020959;28;20101;-80
2022/05/24 04:09:49;;;;;;;8.63;6.35;;;21.10;99.90;;;;;;5026796;28;20039;-80
2022/05/24 04:12:14;;;;;;;9.05;6.45;;;21.10;99.90;;;;;;5023359;28;20429;-80
2022/05/24 04:14:40;;;;;;;9.93;6.57;;;21.10;99.90;;;;;;5025487;28;20111;-81
2022/05/24 04:17:06;;;;;;;8.75;5.78;;;21.10;99.90;;;;;;5020319;28;20029;-81
2022/05/24 04:19:32;;;;;;;8.57;5.97;;;21.10;99.90;;;;;;5027501;28;20026;-81
2022/05/24 04:21:58;;;;;;;9.10;6.40;;;21.10;99.90;;;;;;5021081;28;20037;-82
2022/05/24 04:24:23;;;;;;;9.80;5.65;;;21.10;99.90;;;;;;5019172;28;20121;-82
2022/05/24 04:26:49;;;;;;;10.73;5.85;;;21.20;99.90;;;;;;5020388;28;20026;-81
2022/05/24 04:29:15;;;;;;;10.80;5.88;;;21.20;99.90;;;;;;5026928;28;20064;-81
2022/05/24 04:31:41;;;;;;;9.23;5.95;;;21.30;99.90;;;;;;5023713;28;20018;-81
2022/05/24 04:34:06;;;;;;;9.88;6.03;;;21.30;99.90;;;;;;5018525;28;20018;-81
2022/05/24 04:36:32;;;;;;;11.90;5.82;;;21.30;99.90;;;;;;5018292;28;20473;-81
2022/05/24 04:38:59;;;;;;;13.23;6.00;;;21.30;99.90;;;;;;5020243;28;20026;-81
2022/05/24 04:44:09;;;;;;;8.18;6.05;;;21.40;99.90;;;;;;5022161;28;20407;-81
2022/05/24 04:49:23;;;;;;;14.20;5.78;;;21.50;99.90;;;;;;5027126;28;20550;-81
2022/05/24 04:51:53;;;;;;;10.35;5.53;;;21.50;99.90;;;;;;5040538;28;20025;-81
2022/05/24 04:54:19;;;;;;;9.20;5.60;;;21.50;99.90;;;;;;5037104;28;20056;-80
2022/05/24 04:56:46;;;;;;;7.10;5.25;;;21.60;99.90;;;;;;5036948;28;20713;-80
2022/05/24 04:59:16;;;;;;;13.73;5.28;;;21.70;99.90;;;;;;5043921;28;20127;-80
2022/05/24 05:01:43;;;;;;;10.43;5.18;;;21.70;99.90;;;;;;5042799;28;20492;-81
2022/05/24 05:04:12;;;;;;;8.98;5.20;;;21.80;99.90;;;;;;5045186;28;20037;-80
2022/05/24 05:06:43;;;;;;;9.90;5.35;;;21.80;99.90;;;;;;5040308;28;20036;-80
2022/05/24 05:09:10;;;;;;;11.55;5.60;;;21.90;99.90;;;;;;5025009;28;20032;-80
2022/05/24 05:11:36;;;;;;;10.68;5.20;;;22.00;99.90;;;;;;5038636;28;20055;-79
2022/05/24 05:14:02;;;;;;;12.85;5.10;;;22.00;99.90;;;;;;5045191;28;20044;-79
2022/05/24 05:16:28;;;;;;;11.13;5.05;;;22.00;99.90;;;;;;5023533;28;20056;-80
2022/05/24 05:18:53;;;;;;;13.40;4.93;;;22.10;99.90;;;;;;5041917;28;20048;-80
2022/05/24 05:21:19;;;;;;;7.32;5.25;;;22.10;99.90;;;;;;5024187;28;20021;-79
2022/05/24 05:23:45;;;;;;;12.75;5.43;;;22.20;99.90;;;;;;5039677;28;20729;-80
2022/05/24 05:26:14;;;;;;;12.50;5.57;;;22.30;99.90;;;;;;5022109;28;20518;-80
2022/05/24 05:28:40;;;;;;;9.85;5.15;;;22.40;99.90;;;;;;5023044;28;20044;-80
2022/05/24 05:34:02;;;;;;;5.18;4.57;;;22.40;99.90;;;;;;5039245;28;20077;-80
2022/05/24 05:36:30;;;;;;;14.55;5.95;;;22.50;99.90;;;;;;5037895;28;20022;-80
2022/05/24 05:38:56;;;;;;;11.95;5.38;;;22.50;99.90;;;;;;5041089;28;20063;-80
2022/05/24 05:41:30;;;;;;;13.65;5.22;;;22.50;99.90;;;;;;5042033;28;20064;-80
2022/05/24 05:43:58;;;;;;;16.30;5.93;;;22.60;99.90;;;;;;5044197;28;20055;-80
2022/05/24 05:46:23;;;;;;;9.00;4.93;;;22.60;99.90;;;;;;5038882;28;20021;-80
2022/05/24 05:48:49;;;;;;;10.88;4.70;;;22.60;99.90;;;;;;5041910;28;20547;-82
2022/05/24 05:51:17;;;;;;;10.27;5.18;;;22.70;99.90;;;;;;5022765;28;20508;-79
2022/05/24 05:53:43;;;;;;;10.27;5.60;;;22.70;99.90;;;;;;5038336;28;20025;-80
2022/05/24 05:56:15;;;;;;;11.27;4.97;;;22.70;99.90;;;;;;5037396;28;20545;-81
2022/05/24 05:58:41;;;;;;;8.35;4.95;;;22.80;99.90;;;;;;5038166;28;20033;-81
2022/05/24 06:01:13;;;;;;;6.38;4.80;;;22.90;99.90;;;;;;5038270;28;20507;-81
2022/05/24 06:03:39;;;;;;;12.45;4.88;;;23.00;99.90;;;;;;5040826;28;20026;-80
2022/05/24 06:06:05;;;;;;;10.55;5.53;;;23.10;99.90;;;;;;5023464;28;20072;-80
2022/05/24 06:08:30;;;;;;;21.50;8.18;;;23.20;99.90;;;;;;5047129;28;20016;-79
2022/05/24 06:10:56;;;;;;;9.35;4.72;;;23.20;99.90;;;;;;5041669;28;20040;-78
2022/05/24 06:13:22;;;;;;;16.10;5.63;;;23.20;99.90;;;;;;5038681;28;20017;-78
2022/05/24 06:15:50;;;;;;;9.63;4.82;;;23.30;99.90;;;;;;5037070;28;20456;-80
2022/05/24 06:18:16;;;;;;;15.27;4.95;;;23.40;99.90;;;;;;5042351;28;20024;-80
2022/05/24 06:20:45;;;;;;;13.25;4.93;;;23.50;99.90;;;;;;5035793;28;20029;-79
2022/05/24 06:23:10;;;;;;;11.88;4.72;;;23.60;99.90;;;;;;5041174;28;20069;-80
2022/05/24 06:25:36;;;;;;;8.00;4.93;;;23.60;99.90;;;;;;5026172;28;20059;-80
2022/05/24 06:28:02;;;;;;;11.30;4.82;;;23.80;99.90;;;;;;5023168;28;20021;-80
2022/05/24 06:30:28;;;;;;;13.10;5.30;;;23.90;99.90;;;;;;5037732;28;20017;-80
2022/05/24 06:32:54;;;;;;;10.50;5.60;;;24.00;99.90;;;;;;5035782;28;20043;-80
2022/05/24 06:35:21;;;;;;;10.13;5.05;;;24.10;99.90;;;;;;5020915;28;20459;-80
2022/05/24 06:37:48;;;;;;;21.27;5.55;;;24.20;99.90;;;;;;5039535;28;20021;-80
2022/05/24 06:40:17;;;;;;;148.68;12.20;;;24.30;99.90;;;;;;5036561;28;20031;-80
2022/05/24 06:42:43;;;;;;;24.30;5.47;;;24.50;99.90;;;;;;5021373;28;20022;-80
2022/05/24 06:45:09;;;;;;;20.15;5.70;;;24.50;99.90;;;;;;5019102;28;20037;-81
2022/05/24 06:47:35;;;;;;;13.32;4.95;;;24.60;99.90;;;;;;5023782;28;20025;-81
2022/05/24 06:50:01;;;;;;;13.68;5.03;;;24.70;99.90;;;;;;5045719;28;20094;-81
2022/05/24 06:52:26;;;;;;;8.18;4.72;;;24.80;99.90;;;;;;5037614;28;20021;-81
2022/05/24 06:54:55;;;;;;;13.77;4.82;;;24.80;99.90;;;;;;5033084;28;20075;-81
2022/05/24 06:57:24;;;;;;;15.73;4.78;;;24.90;99.90;;;;;;5032146;28;20026;-82
2022/05/24 07:02:34;;;;;;;11.40;4.70;;;25.10;99.90;;;;;;5026194;28;20097;-81
2022/05/24 07:05:12;;;;;;;9.48;4.50;;;25.10;99.90;;;;;;5030469;28;20021;-81
2022/05/24 07:07:39;;;;;;;14.05;4.57;;;25.00;99.90;;;;;;5013081;28;20072;-80
2022/05/24 07:10:07;;;;;;;15.43;4.63;;;25.00;99.90;;;;;;5032213;28;20035;-80
2022/05/24 07:12:35;;;;;;;13.32;4.75;;;25.10;99.90;;;;;;5030885;28;21037;-80
2022/05/24 07:15:02;;;;;;;8.70;4.20;;;25.20;99.90;;;;;;5032322;28;20439;-80
2022/05/24 07:17:28;;;;;;;9.40;4.80;;;25.20;99.90;;;;;;5035171;28;20029;-81
2022/05/24 07:19:57;;;;;;;7.90;4.57;;;25.40;99.90;;;;;;5031128;28;20364;-80
2022/05/24 07:22:28;;;;;;;10.88;4.63;;;25.40;99.90;;;;;;5034422;28;20029;-80
2022/05/24 07:24:54;;;;;;;11.00;4.50;;;25.30;99.90;;;;;;5033828;28;20030;-81
2022/05/24 07:27:21;;;;;;;16.23;5.05;;;25.30;99.90;;;;;;5034409;28;20379;-82
2022/05/24 07:29:48;;;;;;;10.82;4.55;;;25.30;99.90;;;;;;5035113;28;20030;-80
2022/05/24 07:32:13;;;;;;;11.20;4.10;;;25.30;99.90;;;;;;5028791;28;20018;-81
2022/05/24 07:34:40;;;;;;;8.70;4.68;;;25.40;99.90;;;;;;5017607;28;20033;-81
2022/05/24 07:37:11;;;;;;;13.73;4.45;;;25.30;99.90;;;;;;5016154;28;20172;-81
2022/05/24 07:39:37;;;;;;;10.53;4.57;;;25.30;99.90;;;;;;5035965;28;20029;-81
2022/05/24 07:47:21;;;;;;;26.65;10.38;;;25.10;99.90;;;;;;5032911;28;20021;-80
2022/05/24 07:49:50;;;;;;;12.07;5.65;;;25.10;99.90;;;;;;5030933;28;20103;-81
2022/05/24 07:52:16;;;;;;;26.40;7.95;;;25.00;99.90;;;;;;5037841;28;20033;-82
2022/05/24 07:54:42;;;;;;;7.68;5.18;;;25.10;99.90;;;;;;5019879;28;20026;-82
2022/05/24 07:57:09;;;;;;;8.98;4.50;;;25.20;99.90;;;;;;5017324;28;20033;-81
2022/05/24 07:59:38;;;;;;;9.48;4.70;;;25.30;99.90;;;;;;5018214;28;20030;-82
2022/05/24 08:02:06;;;;;;;11.35;4.57;;;25.40;99.90;;;;;;5039845;28;20100;-81
2022/05/24 08:04:35;;;;;;;10.38;4.40;;;25.40;99.90;;;;;;5038740;28;20052;-82
2022/05/24 08:07:06;;;;;;;7.80;4.47;;;25.40;99.90;;;;;;5041536;28;20017;-82
2022/05/24 08:09:32;;;;;;;6.30;4.73;;;25.40;99.90;;;;;;5035618;28;20017;-81
2022/05/24 08:11:58;;;;;;;11.88;4.65;;;25.40;99.90;;;;;;5043641;28;20033;-80
2022/05/24 08:14:24;;;;;;;9.75;4.55;;;25.30;99.90;;;;;;5019441;28;20026;-80
2022/05/24 08:16:50;;;;;;;9.40;4.30;;;25.30;99.90;;;;;;5019428;28;20400;-79
2022/05/24 08:19:16;;;;;;;10.25;4.50;;;25.30;99.90;;;;;;5037739;28;20030;-79
2022/05/24 08:21:42;;;;;;;12.20;4.55;;;25.30;99.90;;;;;;5022317;28;20021;-80
2022/05/24 08:24:08;;;;;;;10.65;4.25;;;25.40;99.90;;;;;;5040988;28;20518;-81
2022/05/24 08:26:36;;;;;;;9.85;4.68;;;25.50;99.90;;;;;;5018149;28;20021;-80
2022/05/24 08:29:03;;;;;;;10.50;4.40;;;25.70;99.90;;;;;;5025170;28;20026;-80
2022/05/24 08:31:29;;;;;;;11.40;4.10;;;25.80;99.90;;;;;;5020377;28;20028;-80
2022/05/24 08:33:54;;;;;;;11.07;4.15;;;26.00;99.90;;;;;;5020113;28;20031;-80
2022/05/24 08:36:23;;;;;;;8.75;4.78;;;26.20;99.90;;;;;;5034945;28;20095;-80
2022/05/24 08:38:49;;;;;;;7.90;4.40;;;26.30;99.90;;;;;;5043306;28;20079;-84
2022/05/24 08:41:25;;;;;;;8.35;4.22;;;26.30;99.90;;;;;;5037415;28;20022;-92
2022/05/24 08:50:05;;;;;;;10.27;4.10;;;26.50;99.90;;;;;;5032952;28;20071;-90
2022/05/24 08:53:05;;;;;;;9.02;4.10;;;26.60;99.90;;;;;;5022187;28;20021;-90
2022/05/24 08:55:32;;;;;;;5.68;3.35;;;26.70;99.90;;;;;;5040689;28;20036;-88
2022/05/24 08:57:59;;;;;;;14.88;4.05;;;26.90;99.90;;;;;;5045668;28;20037;-93
2022/05/24 09:00:32;;;;;;;13.68;4.32;;;26.90;99.90;;;;;;5036201;28;20549;-92
2022/05/24 09:02:58;;;;;;;18.02;3.90;;;27.10;99.90;;;;;;5018420;28;20029;-92
2022/05/24 09:05:35;;;;;;;13.52;5.72;;;27.50;99.90;;;;;;5034692;28;20036;-91
2022/05/24 09:08:18;;;;;;;15.75;8.02;;;27.50;99.90;;;;;;5038035;28;20025;-91
2022/05/24 09:10:52;;;;;;;9.02;4.18;;;27.50;99.90;;;;;;5016834;28;20040;-89
2022/05/24 09:13:26;;;;;;;6.93;4.30;;;27.30;99.90;;;;;;5035955;28;20035;-90
2022/05/24 09:15:58;;;;;;;21.98;9.45;;;27.10;99.90;;;;;;5034465;28;20022;-90
2022/05/24 09:18:37;;;;;;;16.23;5.38;;;27.10;99.90;;;;;;5042416;28;20430;-91
2022/05/24 09:21:03;;;;;;;32.97;13.13;;;27.20;99.90;;;;;;5025216;28;20021;-86
2022/05/24 09:23:48;;;;;;;11.65;4.95;;;27.20;99.90;;;;;;5040691;28;20095;-94
2022/05/24 09:26:24;;;;;;;12.02;4.85;;;27.30;99.90;;;;;;5017586;28;20032;-87
2022/05/24 09:28:58;;;;;;;11.50;3.90;;;27.30;99.90;;;;;;5042516;28;20100;-91
2022/05/24 09:31:48;;;;;;;13.75;6.53;;;27.20;99.90;;;;;;5054309;28;20213;-94
2022/05/24 09:34:33;;;;;;;7.90;4.07;;;27.10;99.90;;;;;;5050703;28;20021;-92
2022/05/24 09:37:05;;;;;;;9.40;3.90;;;27.20;99.90;;;;;;5042725;28;20017;-93
2022/05/24 09:39:39;;;;;;;7.15;3.80;;;27.50;99.90;;;;;;5043171;28;20017;-89
2022/05/24 09:42:22;;;;;;;14.00;3.65;;;27.50;99.90;;;;;;5042014;28;20017;-89
2022/05/24 09:45:09;;;;;;;7.35;3.42;;;27.30;99.90;;;;;;5042548;28;20033;-92
2022/05/24 09:47:53;;;;;;;9.50;3.70;;;27.30;99.90;;;;;;5056657;28;20024;-92
2022/05/24 09:50:37;;;;;;;10.13;3.42;;;27.50;99.90;;;;;;5031652;28;20467;-88
2022/05/24 09:53:03;;;;;;;11.38;4.47;;;27.80;99.90;;;;;;5039766;28;20028;-93
2022/05/24 09:55:46;;;;;;;4.82;3.13;;;28.00;99.90;;;;;;5032185;28;20025;-90
2022/05/24 09:58:21;;;;;;;7.95;3.85;;;28.40;99.90;;;;;;5035337;28;20039;-93
2022/05/24 10:00:56;;;;;;;11.43;3.75;;;28.60;99.90;;;;;;5034075;28;20032;-89
2022/05/24 10:03:43;;;;;;;7.43;3.55;;;28.80;99.90;;;;;;5034500;28;20017;-91
2022/05/24 10:06:20;;;;;;;12.85;3.72;;;29.20;99.90;;;;;;5030364;28;20033;-90
2022/05/24 10:08:49;;;;;;;24.20;7.78;;;29.60;99.90;;;;;;5016140;28;20022;-92
2022/05/24 10:11:27;;;;;;;10.70;4.18;;;29.80;99.90;;;;;;5019803;28;20033;-92
2022/05/24 10:14:28;;;;;;;15.18;3.63;;;29.80;99.90;;;;;;5032428;28;20028;-92
2022/05/24 10:17:06;;;;;;;10.48;4.15;;;30.10;99.90;;;;;;5038210;28;20491;-90
2022/05/24 10:19:40;;;;;;;18.65;4.30;;;30.30;99.90;;;;;;5032014;28;20067;-91
2022/05/24 10:22:43;;;;;;;10.77;4.40;;;29.70;99.90;;;;;;5040337;28;20032;-91
2022/05/24 10:25:35;;;;;;;8.27;3.60;;;29.70;99.90;;;;;;5020754;28;20094;-93
2022/05/24 10:28:37;;;;;;;8.75;4.40;;;29.40;99.90;;;;;;5040449;28;20052;-92
2022/05/24 10:31:28;;;;;;;10.47;3.83;;;29.20;99.90;;;;;;5048620;28;20086;-90
2022/05/24 10:40:10;;;;;;;8.70;4.68;;;28.90;99.90;;;;;;5044568;28;20091;-88
2022/05/24 10:42:58;;;;;;;12.07;4.88;;;27.20;99.90;;;;;;5029604;28;20128;-88
2022/05/24 10:45:49;;;;;;;9.40;6.03;;;26.80;99.90;;;;;;5018878;28;20084;-89
2022/05/24 10:48:20;;;;;;;11.85;5.55;;;26.70;99.90;;;;;;5038510;28;20032;-90
2022/05/24 10:50:56;;;;;;;10.30;5.63;;;26.30;99.90;;;;;;5037416;28;20091;-92
2022/05/24 10:53:36;;;;;;;14.60;6.05;;;25.70;99.90;;;;;;5036498;28;20010;-95
2022/05/24 10:56:21;;;;;;;9.55;5.28;;;25.70;99.90;;;;;;5019283;28;20032;-89
2022/05/24 10:58:49;;;;;;;16.38;5.65;;;26.00;99.90;;;;;;5036994;28;20399;-87
2022/05/24 11:01:25;;;;;;;14.23;5.43;;;26.20;99.90;;;;;;5035447;28;20456;-88
2022/05/24 11:03:57;;;;;;;10.88;4.97;;;26.50;99.90;;;;;;5035460;28;20072;-87
2022/05/24 11:06:22;;;;;;;;;;;26.60;99.90;;;;;;5040651;28;20025;-87
2022/05/24 11:08:56;;;;;;;12.00;4.75;;;26.70;99.90;;;;;;5036168;28;19909;-87
2022/05/24 11:11:27;;;;;;;15.00;4.88;;;26.50;99.90;;;;;;5036301;28;20484;-88
2022/05/24 11:14:04;;;;;;;12.00;4.38;;;26.50;99.90;;;;;;5036343;28;20045;-87
2022/05/24 11:16:42;;;;;;;8.82;4.30;;;27.10;99.90;;;;;;5018105;28;20058;-87
2022/05/24 11:19:24;;;;;;;14.35;4.45;;;27.10;99.90;;;;;;5035510;28;20055;-86
2022/05/24 11:22:05;;;;;;;14.38;4.60;;;27.40;99.90;;;;;;5034586;28;20017;-87
2022/05/24 11:25:05;;;;;;;18.35;4.97;;;27.30;99.90;;;;;;5038166;28;20163;-87
2022/05/24 11:27:44;;;;;;;11.82;4.45;;;26.80;99.90;;;;;;5023781;28;20032;-88
2022/05/24 11:30:18;;;;;;;13.48;4.32;;;26.80;99.90;;;;;;5016933;28;20025;-87
2022/05/24 11:33:10;;;;;;;11.73;4.40;;;26.70;99.90;;;;;;5042669;28;20032;-85
2022/05/24 11:35:41;;;;;;;11.68;4.35;;;26.30;99.90;;;;;;5035881;28;20031;-87
2022/05/24 11:38:32;;;;;;;11.57;3.97;;;26.70;99.90;;;;;;5040284;28;20024;-87
2022/05/24 11:41:12;;;;;;;13.25;4.95;;;27.30;99.90;;;;;;5030436;28;20226;-87
2022/05/24 11:43:43;;;;;;;13.95;4.57;;;27.50;99.90;;;;;;5018945;28;20132;-88
2022/05/24 11:46:33;;;;;;;9.83;4.03;;;27.60;99.90;;;;;;5041825;28;20076;-87
2022/05/24 11:49:09;;;;;;;13.32;4.20;;;27.80;99.90;;;;;;5011599;28;20291;-86
2022/05/24 11:51:49;;;;;;;12.02;3.90;;;27.50;99.90;;;;;;5030617;28;20064;-85
2022/05/24 11:54:23;;;;;;;13.30;4.63;;;27.30;99.90;;;;;;5019981;28;20094;-85
2022/05/24 11:56:56;;;;;;;17.70;4.68;;;27.20;99.90;;;;;;5024773;28;20142;-85
2022/05/24 11:59:40;;;;;;;12.63;4.30;;;26.70;99.90;;;;;;5017683;28;20025;-86
2022/05/24 12:08:32;;;;;;;21.70;4.43;;;29.10;99.90;;;;;;5041553;28;20040;-90
2022/05/24 12:11:12;;;;;;;15.68;4.40;;;29.10;99.90;;;;;;5024773;28;20120;-85
2022/05/24 12:13:44;;;;;;;11.00;3.80;;;30.80;99.90;;;;;;5022365;28;20030;-81
2022/05/24 12:16:33;;;;;;;14.82;3.60;;;30.80;99.90;;;;;;5022009;28;20037;-82
2022/05/24 12:19:03;;;;;;;11.13;3.80;;;29.10;99.90;;;;;;5019537;28;20076;-81
2022/05/24 12:21:52;;;;;;;11.63;3.88;;;28.80;99.90;;;;;;5038579;28;20021;-85
2022/05/24 12:24:36;;;;;;;11.30;3.95;;;27.90;99.90;;;;;;5043494;28;20040;-86
2022/05/24 12:27:38;;;;;;;13.70;4.07;;;30.40;99.90;;;;;;5036086;28;20025;-84
2022/05/24 12:30:16;;;;;;;9.38;3.28;;;33.60;99.90;;;;;;5010594;28;20033;-87
2022/05/24 12:32:41;;;;;;;14.05;3.75;;;35.20;99.90;;;;;;5019210;28;20698;-85
2022/05/24 12:35:14;;;;;;;10.38;3.97;;;33.50;99.90;;;;;;5021774;28;20071;-84
2022/05/24 12:38:06;;;;;;;;;;;33.60;99.90;;;;;;5042269;28;20361;-85
2022/05/24 12:40:34;;;;;;;7.50;3.70;;;33.10;99.90;;;;;;5031364;28;19987;-83
2022/05/24 12:43:13;;;;;;;10.85;3.67;;;33.70;99.90;;;;;;5021965;28;20031;-86
2022/05/24 12:45:47;;;;;;;8.20;3.67;;;34.20;99.90;;;;;;5026647;28;20029;-87
2022/05/24 12:48:36;;;;;;;13.75;4.55;;;36.20;99.90;;;;;;5022251;28;20057;-87
2022/05/24 12:51:08;;;;;;;13.63;4.78;;;36.40;99.90;;;;;;5029366;28;20049;-86
2022/05/24 12:53:36;;;;;;;19.30;4.95;;;32.80;99.90;;;;;;5020984;28;20079;-88
2022/05/24 12:56:14;;;;;;;15.85;4.40;;;30.20;99.90;;;;;;5018684;28;20527;-85
2022/05/24 12:58:45;;;;;;;13.90;3.97;;;31.90;99.90;;;;;;5040201;28;20027;-86
2022/05/24 13:01:26;;;;;;;12.23;4.20;;;33.50;99.90;;;;;;5040256;28;20068;-85
2022/05/24 13:04:12;;;;;;;9.13;3.63;;;34.20;99.90;;;;;;5024169;28;20036;-85
2022/05/24 13:06:41;;;;;;;16.83;4.07;;;36.10;99.90;;;;;;5024728;28;20030;-86
2022/05/24 13:09:18;;;;;;;18.50;4.63;;;37.10;99.70;;;;;;5039328;28;20427;-85
2022/05/24 13:11:58;;;;;;;14.18;4.13;;;35.60;99.90;;;;;;5043060;28;20014;-86
2022/05/24 13:14:48;;;;;;;13.27;4.72;;;33.10;99.90;;;;;;5020840;28;20025;-90
2022/05/24 13:17:18;;;;;;;20.13;4.65;;;30.50;99.90;;;;;;5043536;28;20052;-92
2022/05/24 13:20:08;;;;;;;14.75;4.38;;;31.10;99.90;;;;;;5024304;28;20028;-85
2022/05/24 13:22:50;;;;;;;15.27;4.57;;;32.10;99.90;;;;;;5038978;28;20729;-86
2022/05/24 13:25:18;;;;;;;18.25;4.57;;;30.60;99.90;;;;;;5024360;28;20028;-84
2022/05/24 13:27:55;;;;;;;15.55;4.32;;;29.30;99.90;;;;;;5020576;28;20431;-85
2022/05/24 13:33:35;;;;;;;18.80;4.95;;;30.00;99.90;;;;;;5036929;28;20060;-84
2022/05/24 13:36:16;;;;;;;19.23;5.18;;;30.00;99.90;;;;;;5021541;28;20408;-83
2022/05/24 13:38:45;;;;;;;20.42;4.68;;;28.30;99.90;;;;;;5022984;28;20454;-85
2022/05/24 13:41:11;;;;;;;17.30;5.05;;;27.90;99.90;;;;;;5020814;28;20049;-84
2022/05/24 13:43:45;;;;;;;15.35;4.55;;;30.00;99.90;;;;;;5034396;28;20237;-84
2022/05/24 13:46:15;;;;;;;14.65;5.30;;;31.40;99.90;;;;;;5037681;28;20028;-85
2022/05/24 13:48:56;;;;;;;16.10;4.95;;;30.60;99.90;;;;;;5045056;28;20033;-85
2022/05/24 13:51:31;;;;;;;14.48;5.20;;;29.60;99.90;;;;;;5034911;28;20412;-85
2022/05/24 13:53:58;;;;;;;25.42;4.97;;;28.70;99.90;;;;;;5021597;28;20034;-84
2022/05/24 13:56:34;;;;;;;17.88;5.32;;;28.30;99.90;;;;;;5042764;28;20013;-85
2022/05/24 13:59:20;;;;;;;15.77;5.07;;;28.70;99.90;;;;;;5035845;28;20041;-86